Time;durP1;ratioP1;P1;durP2;ratioP2;P2;SDS_P1;SDS_P2;PMS_P1;PMS_P2;Temp;Humidity;BMP_temperature;BMP_pressure;BME280_temperature;BME280_humidity;BME280_pressure;Samples;Min_cycle;Max_cycle;Signal;HPM_P1;HPM_P2
2021/11/26 00:01:34;;;;;;;1.20;1.00;;;3.20;98.00;;;;;;5012032;28;20552;-62
2021/11/26 00:04:02;;;;;;;1.20;1.10;;;3.20;98.00;;;;;;5012632;28;20486;-62
2021/11/26 00:06:30;;;;;;;2.27;1.20;;;3.30;98.00;;;;;;5012179;28;20455;-61
2021/11/26 00:08:58;;;;;;;1.57;1.47;;;3.10;98.00;;;;;;5012067;28;20946;-61
2021/11/26 00:11:25;;;;;;;1.30;1.20;;;3.10;98.00;;;;;;5012115;28;20545;-62
2021/11/26 00:14:00;;;;;;;1.20;1.10;;;3.00;98.00;;;;;;5012123;28;20951;-62
2021/11/26 00:16:32;;;;;;;1.27;1.20;;;3.00;98.00;;;;;;5012113;28;20459;-62
2021/11/26 00:19:04;;;;;;;1.93;1.47;;;3.00;98.00;;;;;;5012141;28;20455;-61
2021/11/26 00:21:32;;;;;;;1.17;0.90;;;2.90;98.00;;;;;;5011918;28;20533;-61
2021/11/26 00:23:59;;;;;;;1.43;1.27;;;2.90;98.00;;;;;;5011928;28;20455;-62
2021/11/26 00:26:26;;;;;;;1.57;1.10;;;2.90;98.00;;;;;;5011906;28;20466;-61
2021/11/26 00:28:57;;;;;;;3.63;1.77;;;2.90;98.00;;;;;;5011756;28;20474;-62
2021/11/26 00:31:25;;;;;;;1.73;1.27;;;2.90;98.00;;;;;;5011787;28;20494;-62
2021/11/26 00:33:54;;;;;;;1.40;1.20;;;2.90;98.00;;;;;;5012044;28;20522;-62
2021/11/26 00:36:22;;;;;;;1.30;1.10;;;2.90;98.00;;;;;;5012319;28;20466;-61
2021/11/26 00:38:50;;;;;;;1.63;1.53;;;2.90;98.00;;;;;;5012169;28;20459;-61
2021/11/26 00:41:18;;;;;;;2.00;1.83;;;2.90;98.00;;;;;;5011869;28;20470;-61
2021/11/26 00:43:45;;;;;;;1.37;1.33;;;2.90;98.00;;;;;;5012067;28;20460;-61
2021/11/26 00:46:12;;;;;;;1.20;1.20;;;2.90;98.00;;;;;;5016200;28;20463;-61
2021/11/26 00:48:40;;;;;;;4.23;1.83;;;2.90;98.00;;;;;;5015809;28;20517;-61
2021/11/26 00:51:07;;;;;;;1.20;1.10;;;3.00;98.00;;;;;;5015903;28;20992;-61
2021/11/26 00:53:36;;;;;;;1.50;1.43;;;3.00;98.00;;;;;;5015735;28;20523;-62
2021/11/26 00:56:03;;;;;;;1.50;1.40;;;3.00;98.00;;;;;;5015955;28;20965;-62
2021/11/26 00:58:30;;;;;;;1.57;1.53;;;2.90;98.00;;;;;;5015525;28;20470;-62
2021/11/26 01:00:58;;;;;;;1.40;1.37;;;2.90;98.00;;;;;;5015729;28;20471;-62
2021/11/26 01:03:25;;;;;;;1.50;1.20;;;3.00;98.00;;;;;;5015766;28;20452;-61
2021/11/26 01:05:52;;;;;;;1.33;1.20;;;2.90;98.00;;;;;;5015920;28;20959;-62
2021/11/26 01:08:20;;;;;;;2.33;1.47;;;2.90;98.00;;;;;;5015495;28;20886;-62
2021/11/26 01:10:50;;;;;;;1.40;1.30;;;2.90;98.00;;;;;;5015844;28;20487;-61
2021/11/26 01:13:18;;;;;;;1.63;1.37;;;2.90;98.00;;;;;;5015752;28;20516;-61
2021/11/26 01:15:45;;;;;;;1.20;1.10;;;2.90;98.00;;;;;;5015577;28;20521;-61
2021/11/26 01:18:14;;;;;;;2.13;1.53;;;2.90;98.00;;;;;;5015066;28;20548;-61
2021/11/26 01:20:42;;;;;;;1.30;1.30;;;3.00;98.00;;;;;;5015447;28;20455;-61
2021/11/26 01:23:10;;;;;;;1.20;1.10;;;2.90;98.00;;;;;;5015388;28;20459;-62
2021/11/26 01:25:37;;;;;;;3.30;1.87;;;3.00;98.00;;;;;;5014975;28;20945;-61
2021/11/26 01:28:08;;;;;;;1.30;1.20;;;2.90;98.00;;;;;;5014352;28;20526;-61
2021/11/26 01:30:39;;;;;;;1.20;1.03;;;2.90;98.00;;;;;;5014465;28;20932;-61
2021/11/26 01:33:10;;;;;;;1.50;1.30;;;3.10;98.00;;;;;;5014756;28;20456;-61
2021/11/26 01:35:38;;;;;;;1.30;1.30;;;3.20;98.00;;;;;;5014827;28;20459;-62
2021/11/26 01:38:09;;;;;;;1.40;1.20;;;3.20;98.00;;;;;;5015172;28;20554;-61
2021/11/26 01:40:37;;;;;;;1.20;1.00;;;3.30;98.00;;;;;;5014800;28;21027;-62
2021/11/26 01:43:09;;;;;;;1.47;1.40;;;3.40;98.00;;;;;;5014971;28;20455;-62
2021/11/26 01:45:41;;;;;;;1.20;1.17;;;3.40;98.00;;;;;;5014854;28;20463;-62
2021/11/26 01:48:09;;;;;;;1.73;1.30;;;3.40;98.00;;;;;;5014871;28;20530;-61
2021/11/26 01:50:36;;;;;;;3.40;1.83;;;3.30;98.00;;;;;;5014873;28;20513;-61
2021/11/26 01:53:04;;;;;;;1.80;1.50;;;3.30;98.00;;;;;;5014802;28;20521;-62
2021/11/26 01:55:31;;;;;;;2.23;1.43;;;3.20;98.00;;;;;;5013579;28;20953;-62
2021/11/26 01:57:58;;;;;;;1.50;1.40;;;3.10;98.00;;;;;;5014479;28;20495;-61
2021/11/26 02:00:30;;;;;;;1.90;1.67;;;3.20;98.00;;;;;;5014552;28;20533;-62
2021/11/26 02:02:58;;;;;;;1.60;1.40;;;3.10;98.00;;;;;;5014375;28;20479;-61
2021/11/26 02:05:25;;;;;;;1.93;1.63;;;3.00;98.00;;;;;;5014510;28;20455;-61
2021/11/26 02:07:52;;;;;;;1.60;1.53;;;2.90;98.00;;;;;;5014052;28;20455;-61
2021/11/26 02:10:20;;;;;;;2.33;1.43;;;2.80;98.00;;;;;;5014114;28;20514;-62
2021/11/26 02:12:47;;;;;;;2.03;1.80;;;2.80;98.00;;;;;;5014204;28;20478;-61
2021/11/26 02:15:18;;;;;;;1.50;1.20;;;3.00;98.00;;;;;;5014077;28;20467;-61
2021/11/26 02:17:49;;;;;;;2.07;1.53;;;2.90;98.00;;;;;;5014245;28;20459;-61
2021/11/26 02:20:19;;;;;;;1.70;1.50;;;2.80;98.00;;;;;;5014112;28;20455;-61
2021/11/26 02:22:46;;;;;;;2.97;2.83;;;2.80;98.00;;;;;;5014269;28;20517;-61
2021/11/26 02:25:13;;;;;;;1.20;1.00;;;2.70;98.00;;;;;;5013620;28;21031;-61
2021/11/26 02:27:41;;;;;;;2.80;1.20;;;2.70;98.00;;;;;;5014218;28;20459;-62
2021/11/26 02:30:14;;;;;;;1.40;1.10;;;2.80;98.00;;;;;;5014069;28;20463;-61
2021/11/26 02:32:43;;;;;;;1.70;1.10;;;2.80;98.00;;;;;;5014414;28;20557;-61
2021/11/26 02:35:11;;;;;;;1.80;1.70;;;2.80;98.00;;;;;;5012994;28;20462;-62
2021/11/26 02:37:41;;;;;;;2.40;1.43;;;2.80;98.00;;;;;;5014081;28;21065;-61
2021/11/26 02:40:14;;;;;;;1.60;1.50;;;2.90;98.00;;;;;;5014202;28;20466;-61
2021/11/26 02:42:41;;;;;;;1.33;1.10;;;2.90;98.00;;;;;;5014024;28;20448;-62
2021/11/26 02:45:11;;;;;;;1.33;1.30;;;2.80;98.00;;;;;;5013415;28;20460;-62
2021/11/26 02:47:39;;;;;;;1.63;1.47;;;2.90;98.00;;;;;;5013726;28;20460;-61
2021/11/26 02:50:09;;;;;;;1.17;1.00;;;2.90;98.00;;;;;;5013694;28;20522;-61
2021/11/26 02:52:37;;;;;;;1.20;1.13;;;2.90;98.00;;;;;;5013591;28;20566;-61
2021/11/26 02:55:08;;;;;;;1.30;1.20;;;2.90;98.00;;;;;;5013592;28;20947;-61
2021/11/26 02:57:35;;;;;;;1.50;1.47;;;3.00;98.00;;;;;;5013573;28;20462;-62
2021/11/26 03:00:05;;;;;;;4.13;1.57;;;3.00;98.00;;;;;;5013380;28;20547;-61
2021/11/26 03:02:32;;;;;;;1.30;1.13;;;3.00;98.00;;;;;;5012733;28;20467;-61
2021/11/26 03:04:59;;;;;;;2.07;1.80;;;3.00;98.00;;;;;;5013218;28;20455;-61
2021/11/26 03:07:27;;;;;;;1.20;1.07;;;2.90;98.00;;;;;;5013235;28;21012;-62
2021/11/26 03:09:54;;;;;;;1.20;1.10;;;2.80;98.00;;;;;;5013122;28;20459;-61
2021/11/26 03:12:22;;;;;;;2.07;1.50;;;2.90;98.00;;;;;;5012970;28;20487;-61
2021/11/26 03:14:53;;;;;;;1.20;1.10;;;3.00;98.00;;;;;;5013126;28;20463;-62
2021/11/26 03:17:21;;;;;;;1.20;1.10;;;3.10;98.00;;;;;;5012914;28;20462;-61
2021/11/26 03:19:50;;;;;;;1.20;1.00;;;3.00;98.00;;;;;;5013027;28;20459;-62
2021/11/26 03:22:17;;;;;;;1.20;1.10;;;3.00;98.00;;;;;;5013013;28;20511;-61
2021/11/26 03:24:44;;;;;;;11.60;1.90;;;3.00;98.00;;;;;;5013006;28;20894;-61
2021/11/26 03:27:12;;;;;;;3.00;1.73;;;3.00;98.00;;;;;;5013044;28;20463;-61
2021/11/26 03:29:40;;;;;;;2.07;1.77;;;3.00;98.00;;;;;;5012734;28;20513;-61
2021/11/26 03:32:08;;;;;;;2.30;2.10;;;3.10;98.00;;;;;;5012936;28;20538;-61
2021/11/26 03:34:35;;;;;;;1.13;1.00;;;3.10;98.00;;;;;;5012702;28;20460;-61
2021/11/26 03:37:02;;;;;;;1.73;1.53;;;3.10;98.00;;;;;;5012862;28;20974;-62
2021/11/26 03:39:29;;;;;;;2.70;2.27;;;3.00;98.00;;;;;;5012674;28;20521;-61
2021/11/26 03:41:57;;;;;;;1.50;1.33;;;3.00;98.00;;;;;;5012879;28;20455;-61
2021/11/26 03:44:24;;;;;;;1.40;1.20;;;3.00;98.00;;;;;;5012848;28;20533;-61
2021/11/26 03:46:53;;;;;;;1.60;1.53;;;3.00;98.00;;;;;;5012884;28;20521;-61
2021/11/26 03:49:20;;;;;;;1.10;1.00;;;3.00;98.00;;;;;;5011659;28;20501;-61
2021/11/26 03:51:47;;;;;;;1.20;1.10;;;3.10;98.00;;;;;;5012807;28;20545;-61
2021/11/26 03:54:14;;;;;;;2.80;1.97;;;3.20;98.00;;;;;;5012758;28;20997;-61
2021/11/26 03:56:41;;;;;;;1.10;1.00;;;3.10;98.00;;;;;;5012849;28;20462;-61
2021/11/26 03:59:08;;;;;;;1.30;1.23;;;3.30;98.00;;;;;;5012899;28;20462;-61
2021/11/26 04:01:36;;;;;;;1.10;0.90;;;3.30;98.00;;;;;;5012483;28;20533;-61
2021/11/26 04:04:04;;;;;;;1.63;1.53;;;3.30;98.00;;;;;;5012413;28;20459;-61
2021/11/26 04:06:32;;;;;;;3.10;1.23;;;3.10;98.00;;;;;;5011248;28;20514;-62
2021/11/26 04:09:00;;;;;;;1.20;1.20;;;3.00;98.00;;;;;;5012294;28;20861;-61
2021/11/26 04:11:27;;;;;;;1.50;1.40;;;2.90;98.00;;;;;;5012464;28;21018;-61
2021/11/26 04:13:54;;;;;;;2.90;1.77;;;2.80;98.00;;;;;;5012074;28;20482;-62
2021/11/26 04:16:21;;;;;;;1.83;1.63;;;2.70;98.00;;;;;;5011967;28;20455;-61
2021/11/26 04:18:49;;;;;;;2.53;2.03;;;2.80;98.00;;;;;;5011520;28;20970;-62
2021/11/26 04:21:17;;;;;;;7.70;2.90;;;2.70;98.00;;;;;;5012083;28;20506;-61
2021/11/26 04:23:45;;;;;;;3.30;2.23;;;2.70;98.00;;;;;;5011861;28;20522;-61
2021/11/26 04:26:12;;;;;;;2.63;2.47;;;2.70;98.00;;;;;;5012179;28;20545;-61
2021/11/26 04:28:39;;;;;;;1.63;1.37;;;2.70;98.00;;;;;;5011819;28;20463;-61
2021/11/26 04:31:07;;;;;;;1.50;1.47;;;2.80;98.00;;;;;;5011953;28;20483;-61
2021/11/26 04:33:34;;;;;;;1.83;1.83;;;2.90;98.00;;;;;;5011899;28;20933;-61
2021/11/26 04:36:02;;;;;;;1.30;1.30;;;2.90;98.00;;;;;;5012079;28;20460;-61
2021/11/26 04:38:31;;;;;;;1.40;1.10;;;2.80;98.00;;;;;;5011854;28;20455;-61
2021/11/26 04:40:58;;;;;;;1.37;1.27;;;2.80;98.00;;;;;;5011870;28;20464;-61
2021/11/26 04:43:25;;;;;;;1.90;1.80;;;2.80;98.00;;;;;;5011861;28;21031;-61
2021/11/26 04:45:56;;;;;;;1.20;1.10;;;2.80;98.00;;;;;;5011907;28;20529;-61
2021/11/26 04:48:24;;;;;;;2.33;2.13;;;2.80;98.00;;;;;;5011914;28;20951;-61
2021/11/26 04:50:52;;;;;;;1.50;1.20;;;2.80;98.00;;;;;;5011791;28;20459;-61
2021/11/26 04:53:20;;;;;;;1.97;1.87;;;2.80;98.00;;;;;;5012166;28;20522;-61
2021/11/26 04:55:49;;;;;;;1.50;1.40;;;2.90;98.00;;;;;;5011793;28;20882;-61
2021/11/26 04:58:16;;;;;;;1.33;1.27;;;2.80;98.00;;;;;;5011949;28;20871;-61
2021/11/26 05:00:44;;;;;;;1.20;1.20;;;2.80;98.00;;;;;;5011602;28;20463;-61
2021/11/26 05:03:12;;;;;;;3.50;1.30;;;2.70;98.00;;;;;;5011884;28;20557;-62
2021/11/26 05:05:39;;;;;;;5.30;1.73;;;2.70;98.00;;;;;;5011691;28;20502;-62
2021/11/26 05:08:09;;;;;;;1.20;1.10;;;2.70;98.00;;;;;;5012038;28;20463;-62
2021/11/26 05:10:36;;;;;;;2.67;1.60;;;2.80;98.00;;;;;;5011868;28;20475;-61
2021/11/26 05:13:05;;;;;;;3.73;1.80;;;2.90;98.00;;;;;;5011885;28;20490;-62
2021/11/26 05:15:33;;;;;;;1.20;1.07;;;3.00;98.00;;;;;;5011673;28;20465;-61
2021/11/26 05:18:03;;;;;;;1.33;1.30;;;3.00;98.00;;;;;;5011969;28;20787;-61
2021/11/26 05:20:32;;;;;;;1.57;1.50;;;2.90;98.00;;;;;;5011907;28;20466;-61
2021/11/26 05:23:00;;;;;;;1.53;1.47;;;2.70;98.00;;;;;;5011575;28;20459;-61
2021/11/26 05:25:28;;;;;;;7.13;1.57;;;2.80;98.00;;;;;;5011433;28;20459;-61
2021/11/26 05:27:56;;;;;;;1.50;1.40;;;2.70;98.00;;;;;;5011499;28;20880;-61
2021/11/26 05:30:24;;;;;;;1.30;1.17;;;2.70;98.00;;;;;;5012405;28;20558;-61
2021/11/26 05:32:52;;;;;;;1.20;1.10;;;2.80;98.00;;;;;;5015146;28;20553;-61
2021/11/26 05:35:21;;;;;;;2.00;1.90;;;2.90;98.00;;;;;;5015215;28;20470;-61
2021/11/26 05:37:48;;;;;;;1.27;1.23;;;2.70;98.00;;;;;;5013792;28;20466;-61
2021/11/26 05:40:17;;;;;;;2.43;2.07;;;2.60;98.00;;;;;;5014777;28;20457;-62
2021/11/26 05:42:45;;;;;;;1.50;1.37;;;2.50;98.00;;;;;;5014818;28;20953;-61
2021/11/26 05:45:13;;;;;;;1.30;1.20;;;2.60;98.00;;;;;;5014941;28;20958;-61
2021/11/26 05:47:42;;;;;;;1.80;1.77;;;2.70;98.00;;;;;;5014893;28;20953;-61
2021/11/26 05:50:12;;;;;;;1.63;1.37;;;2.50;98.00;;;;;;5014632;28;21021;-61
2021/11/26 05:52:40;;;;;;;2.87;1.30;;;2.50;98.00;;;;;;5014572;28;20670;-62
2021/11/26 05:55:10;;;;;;;1.60;1.50;;;2.70;98.00;;;;;;5014816;28;20811;-62
2021/11/26 05:57:38;;;;;;;2.60;1.83;;;2.90;98.00;;;;;;5014462;28;20455;-62
2021/11/26 06:00:08;;;;;;;1.97;1.87;;;3.10;98.00;;;;;;5014515;28;20467;-62
2021/11/26 06:02:36;;;;;;;1.97;1.87;;;3.10;98.00;;;;;;5014472;28;20474;-61
2021/11/26 06:05:05;;;;;;;1.20;1.00;;;3.10;98.00;;;;;;5014623;28;20455;-61
2021/11/26 06:07:34;;;;;;;1.40;1.30;;;3.10;98.00;;;;;;5014823;28;20666;-61
2021/11/26 06:10:01;;;;;;;1.50;1.40;;;3.20;98.00;;;;;;5014607;28;20469;-61
2021/11/26 06:12:28;;;;;;;3.37;1.73;;;3.20;98.00;;;;;;5014500;28;20551;-61
2021/11/26 06:14:56;;;;;;;1.80;1.70;;;3.20;98.00;;;;;;5013278;28;20459;-61
2021/11/26 06:17:23;;;;;;;1.60;1.50;;;3.20;98.00;;;;;;5014272;28;20466;-61
2021/11/26 06:19:50;;;;;;;1.70;1.40;;;3.20;98.00;;;;;;5014276;28;20459;-61
2021/11/26 06:22:19;;;;;;;1.40;1.30;;;3.20;98.00;;;;;;5014207;28;20458;-62
2021/11/26 06:24:46;;;;;;;3.77;2.90;;;3.10;98.00;;;;;;5013977;28;20502;-61
2021/11/26 06:27:14;;;;;;;3.37;2.37;;;3.10;98.00;;;;;;5013570;28;20508;-61
2021/11/26 06:29:41;;;;;;;1.30;1.30;;;3.10;98.00;;;;;;5013233;28;20526;-61
2021/11/26 06:32:09;;;;;;;1.73;1.63;;;3.00;98.00;;;;;;5013390;28;20495;-61
2021/11/26 06:34:36;;;;;;;1.90;1.80;;;3.00;98.00;;;;;;5013793;28;20520;-61
2021/11/26 06:37:04;;;;;;;3.93;2.27;;;3.10;98.00;;;;;;5013826;28;20459;-61
2021/11/26 06:39:34;;;;;;;2.60;1.70;;;3.00;98.00;;;;;;5014518;28;20934;-61
2021/11/26 06:42:02;;;;;;;1.53;1.40;;;2.90;98.00;;;;;;5013532;28;20455;-62
2021/11/26 06:44:32;;;;;;;1.93;1.70;;;2.80;98.00;;;;;;5013657;28;20522;-61
2021/11/26 06:47:00;;;;;;;2.50;1.67;;;2.70;98.00;;;;;;5013759;28;20512;-61
2021/11/26 06:49:28;;;;;;;2.47;2.30;;;2.70;98.00;;;;;;5013674;28;20522;-62
2021/11/26 06:51:55;;;;;;;1.30;1.23;;;2.80;98.00;;;;;;5013766;28;20479;-62
2021/11/26 06:54:24;;;;;;;2.17;1.67;;;2.70;98.00;;;;;;5013568;28;20518;-61
2021/11/26 06:56:53;;;;;;;1.20;1.20;;;2.60;98.00;;;;;;5013544;28;20467;-61
2021/11/26 06:59:21;;;;;;;1.57;1.37;;;2.70;98.00;;;;;;5013264;28;20521;-61
2021/11/26 07:01:48;;;;;;;1.20;1.20;;;2.80;98.00;;;;;;5013524;28;20474;-61
2021/11/26 07:04:16;;;;;;;1.47;1.37;;;2.70;98.00;;;;;;5013170;28;20458;-62
2021/11/26 07:06:44;;;;;;;3.13;2.40;;;2.70;98.00;;;;;;5013349;28;20474;-61
2021/11/26 07:09:11;;;;;;;2.10;1.97;;;2.70;98.00;;;;;;5012010;28;20463;-61
2021/11/26 07:11:43;;;;;;;2.00;1.60;;;2.70;98.00;;;;;;5012743;28;20957;-61
2021/11/26 07:14:12;;;;;;;1.20;1.10;;;2.70;98.00;;;;;;5013020;28;20452;-61
2021/11/26 07:16:39;;;;;;;1.30;1.13;;;2.70;98.00;;;;;;5013258;28;20955;-61
2021/11/26 07:19:06;;;;;;;1.50;1.37;;;2.70;98.00;;;;;;5013218;28;20487;-62
2021/11/26 07:21:33;;;;;;;3.00;2.40;;;2.70;98.00;;;;;;5013146;28;20862;-62
2021/11/26 07:24:01;;;;;;;1.67;1.20;;;2.80;98.00;;;;;;5012958;28;20463;-61
2021/11/26 07:26:29;;;;;;;1.93;1.87;;;2.80;98.00;;;;;;5013112;28;20534;-61
2021/11/26 07:28:56;;;;;;;2.50;1.97;;;2.90;98.00;;;;;;5012963;28;20463;-62
2021/11/26 07:31:24;;;;;;;2.50;1.83;;;3.00;98.00;;;;;;5013210;28;20866;-61
2021/11/26 07:33:52;;;;;;;1.10;1.10;;;3.10;98.00;;;;;;5011590;28;20487;-61
2021/11/26 07:36:19;;;;;;;2.50;1.97;;;3.00;98.00;;;;;;5012902;28;20464;-61
2021/11/26 07:38:46;;;;;;;1.23;1.23;;;2.90;98.00;;;;;;5012966;28;21004;-61
2021/11/26 07:41:13;;;;;;;2.07;1.83;;;2.90;98.00;;;;;;5012846;28;20942;-61
2021/11/26 07:43:40;;;;;;;1.77;1.43;;;3.00;98.00;;;;;;5012715;28;20452;-61
2021/11/26 07:46:07;;;;;;;1.20;1.10;;;3.10;98.00;;;;;;5012632;28;20513;-61
2021/11/26 07:48:38;;;;;;;1.10;1.00;;;3.00;98.00;;;;;;5012668;28;20463;-61
2021/11/26 07:51:06;;;;;;;1.20;1.10;;;3.20;98.00;;;;;;5012133;28;20491;-61
2021/11/26 07:53:33;;;;;;;11.70;1.53;;;3.30;98.00;;;;;;5011965;28;20894;-61
2021/11/26 07:56:00;;;;;;;2.90;1.40;;;3.40;98.00;;;;;;5012013;28;21001;-61
2021/11/26 07:58:27;;;;;;;3.87;1.50;;;3.40;98.00;;;;;;5012650;28;20456;-61
2021/11/26 08:00:54;;;;;;;1.30;1.23;;;3.30;98.00;;;;;;5012664;28;20510;-61
2021/11/26 08:03:22;;;;;;;4.43;1.63;;;3.50;98.00;;;;;;5012639;28;20570;-61
2021/11/26 08:05:51;;;;;;;1.50;1.40;;;3.50;98.00;;;;;;5012815;28;20459;-61
2021/11/26 08:08:18;;;;;;;1.77;1.67;;;3.40;98.00;;;;;;5012493;28;20518;-61
2021/11/26 08:10:48;;;;;;;1.20;1.20;;;3.40;98.00;;;;;;5012427;28;20467;-62
2021/11/26 08:13:15;;;;;;;3.97;2.47;;;3.30;98.00;;;;;;5010953;28;20490;-62
2021/11/26 08:15:43;;;;;;;2.13;1.63;;;3.30;98.00;;;;;;5012424;28;20467;-62
2021/11/26 08:18:10;;;;;;;1.93;1.80;;;3.40;98.00;;;;;;5012034;28;21008;-61
2021/11/26 08:20:37;;;;;;;1.50;1.40;;;3.40;98.00;;;;;;5011830;28;20459;-61
2021/11/26 08:23:09;;;;;;;1.27;1.20;;;3.50;98.00;;;;;;5011956;28;20546;-61
2021/11/26 08:25:37;;;;;;;2.00;1.90;;;3.60;98.00;;;;;;5011619;28;20628;-61
2021/11/26 08:28:05;;;;;;;2.23;1.97;;;3.50;98.00;;;;;;5012010;28;20467;-62
2021/11/26 08:30:35;;;;;;;2.70;1.40;;;3.60;98.00;;;;;;5010333;28;20471;-62
2021/11/26 08:33:02;;;;;;;1.40;1.10;;;3.60;98.00;;;;;;5011925;28;20545;-62
2021/11/26 08:35:29;;;;;;;1.20;1.10;;;3.60;98.00;;;;;;5010853;28;21162;-61
2021/11/26 08:37:58;;;;;;;2.80;1.40;;;3.60;98.00;;;;;;5011741;28;20452;-61
2021/11/26 08:40:27;;;;;;;2.37;1.97;;;3.50;98.00;;;;;;5011697;28;20526;-61
2021/11/26 08:42:56;;;;;;;1.30;1.20;;;3.50;98.00;;;;;;5011889;28;20547;-60
2021/11/26 08:45:23;;;;;;;2.40;1.80;;;3.50;98.00;;;;;;5007924;28;20456;-62
2021/11/26 08:47:51;;;;;;;1.90;1.73;;;3.60;98.00;;;;;;5008102;28;20460;-63
2021/11/26 08:50:22;;;;;;;3.67;1.60;;;3.60;98.00;;;;;;5007252;28;20467;-63
2021/11/26 08:52:49;;;;;;;1.70;1.60;;;3.50;98.00;;;;;;5011117;28;20490;-62
2021/11/26 08:55:20;;;;;;;1.30;1.13;;;3.40;98.00;;;;;;5011383;28;20519;-61
2021/11/26 08:57:53;;;;;;;1.20;1.10;;;3.50;98.00;;;;;;5010874;28;20506;-62
2021/11/26 09:00:23;;;;;;;1.10;1.00;;;3.60;98.00;;;;;;5010411;28;20455;-61
2021/11/26 09:02:50;;;;;;;1.10;0.90;;;4.30;98.00;;;;;;5011821;28;20481;-61
2021/11/26 09:05:17;;;;;;;1.47;1.30;;;5.90;98.00;;;;;;5012764;28;20459;-62
2021/11/26 09:07:46;;;;;;;2.13;1.40;;;7.30;98.00;;;;;;5016011;28;20462;-61
2021/11/26 09:10:14;;;;;;;2.37;1.57;;;7.60;98.00;;;;;;5014996;28;20473;-61
2021/11/26 09:12:43;;;;;;;1.20;1.10;;;7.40;98.00;;;;;;5015669;28;20488;-61
2021/11/26 09:15:13;;;;;;;1.83;1.23;;;6.90;98.00;;;;;;5015698;28;20462;-61
2021/11/26 09:17:41;;;;;;;3.63;1.53;;;6.40;98.00;;;;;;5015849;28;20536;-61
2021/11/26 09:20:09;;;;;;;1.30;1.30;;;6.00;98.00;;;;;;5015489;28;20953;-61
2021/11/26 09:22:37;;;;;;;1.50;1.20;;;5.60;98.00;;;;;;5015908;28;20460;-61
2021/11/26 09:25:06;;;;;;;2.07;1.80;;;5.50;98.00;;;;;;5015457;28;20882;-61
2021/11/26 09:27:34;;;;;;;1.40;1.20;;;5.30;98.00;;;;;;5015581;28;20513;-61
2021/11/26 09:30:01;;;;;;;2.03;1.90;;;5.20;98.00;;;;;;5015156;28;20467;-61
2021/11/26 09:32:30;;;;;;;5.47;1.87;;;5.00;98.00;;;;;;5015059;28;20490;-61
2021/11/26 09:34:57;;;;;;;7.43;1.50;;;4.80;98.00;;;;;;5015204;28;20800;-62
2021/11/26 09:37:24;;;;;;;1.93;1.83;;;4.70;98.00;;;;;;5013979;28;20848;-61
2021/11/26 09:39:53;;;;;;;1.20;1.20;;;4.70;98.00;;;;;;5014808;28;20519;-61
2021/11/26 09:42:20;;;;;;;1.30;1.20;;;4.60;98.00;;;;;;5014981;28;20510;-61
2021/11/26 09:44:49;;;;;;;3.10;1.63;;;4.60;98.00;;;;;;5015024;28;20460;-61
2021/11/26 09:47:16;;;;;;;3.10;2.00;;;4.40;98.00;;;;;;5014908;28;20466;-61
2021/11/26 09:49:44;;;;;;;1.33;1.20;;;4.40;98.00;;;;;;5013502;28;20467;-61
2021/11/26 09:52:11;;;;;;;1.77;1.67;;;4.30;98.00;;;;;;5014949;28;20535;-61
2021/11/26 09:54:39;;;;;;;4.10;1.63;;;4.20;98.00;;;;;;5014655;28;20898;-61
2021/11/26 09:57:07;;;;;;;1.80;1.40;;;4.10;98.00;;;;;;5014897;28;20463;-62
2021/11/26 09:59:34;;;;;;;1.67;1.60;;;4.00;98.00;;;;;;5014638;28;20449;-61
2021/11/26 10:02:09;;;;;;;2.20;1.50;;;4.20;98.00;;;;;;5014595;28;20876;-61
2021/11/26 10:04:38;;;;;;;1.43;1.20;;;4.30;98.00;;;;;;5014853;28;20457;-61
2021/11/26 10:07:07;;;;;;;1.20;1.10;;;4.30;98.00;;;;;;5014510;28;20456;-61
2021/11/26 10:09:37;;;;;;;1.53;1.20;;;4.30;98.00;;;;;;5014498;28;20456;-61
2021/11/26 10:12:08;;;;;;;1.60;1.40;;;4.20;98.00;;;;;;5014689;28;21012;-61
2021/11/26 10:14:38;;;;;;;1.70;1.27;;;4.20;98.00;;;;;;5014415;28;20521;-61
2021/11/26 10:17:12;;;;;;;1.83;1.40;;;4.20;98.00;;;;;;5013540;28;20794;-61
2021/11/26 10:19:41;;;;;;;1.67;1.50;;;4.30;98.00;;;;;;5014343;28;20462;-62
2021/11/26 10:22:32;;;;;;;1.40;1.40;;;4.20;98.00;;;;;;5014250;28;20463;-61
2021/11/26 10:25:05;;;;;;;1.93;1.37;;;4.20;98.00;;;;;;5009914;28;20494;-61
2021/11/26 10:27:51;;;;;;;7.90;2.33;;;4.20;98.00;;;;;;5014576;28;20805;-61
2021/11/26 10:30:21;;;;;;;1.80;1.70;;;4.20;98.00;;;;;;5014142;28;20464;-61
2021/11/26 10:32:57;;;;;;;1.83;1.73;;;4.20;98.00;;;;;;5014231;28;20522;-61
2021/11/26 10:35:26;;;;;;;1.30;1.10;;;4.20;98.00;;;;;;5013015;28;20487;-61
2021/11/26 10:38:04;;;;;;;1.60;1.60;;;4.40;98.00;;;;;;5014228;28;20541;-61
2021/11/26 10:40:33;;;;;;;1.50;1.37;;;4.50;98.00;;;;;;5014035;28;20459;-61
2021/11/26 10:43:03;;;;;;;1.73;1.60;;;4.60;98.00;;;;;;5012632;28;20461;-61
2021/11/26 10:45:51;;;;;;;3.97;1.30;;;4.60;98.00;;;;;;5012773;28;20460;-61
2021/11/26 10:59:53;;;;;;;1.80;1.60;;;4.10;98.00;;;;;;5009967;28;20456;-61
2021/11/26 11:02:28;;;;;;;1.37;1.33;;;4.20;98.00;;;;;;5010351;28;20467;-62
2021/11/26 11:04:56;;;;;;;1.30;1.20;;;4.10;98.00;;;;;;5010115;28;20942;-62
2021/11/26 11:07:23;;;;;;;1.30;1.20;;;4.10;98.00;;;;;;5011915;28;21117;-62
2021/11/26 11:09:56;;;;;;;2.10;1.30;;;4.20;98.00;;;;;;5011585;28;20460;-61
2021/11/26 11:12:31;;;;;;;2.47;1.60;;;4.40;98.00;;;;;;5011274;28;20814;-61
2021/11/26 11:15:00;;;;;;;1.83;1.57;;;4.30;98.00;;;;;;5011222;28;20915;-62
2021/11/26 11:17:29;;;;;;;2.80;1.60;;;4.30;98.00;;;;;;5010786;28;20823;-61
2021/11/26 11:19:57;;;;;;;1.97;1.63;;;4.30;98.00;;;;;;5011243;28;20464;-62
2021/11/26 11:22:25;;;;;;;1.27;1.23;;;4.30;98.00;;;;;;5012978;28;20452;-64
2021/11/26 11:24:54;;;;;;;5.13;2.63;;;4.30;98.00;;;;;;5012221;28;20475;-61
2021/11/26 11:27:21;;;;;;;1.73;1.50;;;4.00;98.00;;;;;;5010235;28;20459;-61
2021/11/26 11:29:48;;;;;;;1.17;1.00;;;4.00;98.00;;;;;;5010889;28;20525;-62
2021/11/26 11:32:16;;;;;;;2.07;1.80;;;4.10;98.00;;;;;;5010962;28;20922;-61
2021/11/26 11:34:47;;;;;;;1.40;1.37;;;4.20;98.00;;;;;;5009924;28;20503;-61
2021/11/26 11:37:18;;;;;;;2.03;1.57;;;4.40;98.00;;;;;;5009947;28;20460;-63
2021/11/26 11:39:47;;;;;;;1.20;1.10;;;4.50;98.00;;;;;;5009076;28;20455;-63
2021/11/26 11:42:25;;;;;;;3.00;1.40;;;4.50;98.00;;;;;;5008464;28;20518;-63
2021/11/26 11:44:59;;;;;;;1.20;1.20;;;4.40;98.00;;;;;;5001886;28;20470;-61
2021/11/26 11:47:26;;;;;;;1.90;1.63;;;4.50;98.00;;;;;;5008373;28;20459;-62
2021/11/26 11:50:09;;;;;;;2.37;1.30;;;4.50;98.00;;;;;;5008319;28;20456;-61
2021/11/26 11:52:44;;;;;;;1.80;1.43;;;4.50;98.00;;;;;;5010619;28;20497;-62
2021/11/26 11:55:21;;;;;;;1.20;1.07;;;4.40;98.00;;;;;;5010252;28;20495;-62
2021/11/26 11:57:52;;;;;;;1.43;1.37;;;4.30;98.00;;;;;;5009949;28;20467;-62
2021/11/26 12:00:21;;;;;;;1.20;1.00;;;4.30;98.00;;;;;;5009944;28;21373;-63
2021/11/26 12:02:50;;;;;;;1.20;1.10;;;4.50;98.00;;;;;;5009965;28;20550;-62
2021/11/26 12:05:26;;;;;;;1.20;1.10;;;4.60;98.00;;;;;;5009948;28;20467;-62
2021/11/26 12:08:08;;;;;;;1.20;1.00;;;4.60;98.00;;;;;;5009968;28;20455;-62
2021/11/26 12:10:56;;;;;;;1.53;1.43;;;4.50;98.00;;;;;;5009752;28;20455;-62
2021/11/26 12:13:29;;;;;;;1.60;1.50;;;4.50;98.00;;;;;;5001715;28;20530;-63
2021/11/26 12:16:15;;;;;;;1.77;1.53;;;4.40;98.00;;;;;;5009374;28;20968;-62
2021/11/26 12:18:45;;;;;;;2.63;1.23;;;4.50;98.00;;;;;;5009962;28;20474;-62
2021/11/26 12:21:13;;;;;;;1.20;1.00;;;4.60;98.00;;;;;;5009260;28;20460;-62
2021/11/26 12:23:59;;;;;;;1.50;1.30;;;4.50;98.00;;;;;;5008468;28;20455;-62
2021/11/26 12:26:29;;;;;;;1.20;1.00;;;4.40;98.00;;;;;;5009293;28;20453;-62
2021/11/26 12:29:10;;;;;;;1.20;1.00;;;4.20;98.00;;;;;;5009569;28;20907;-63
2021/11/26 12:31:38;;;;;;;1.20;1.00;;;4.20;98.00;;;;;;5009380;28;20459;-62
2021/11/26 12:34:08;;;;;;;6.17;2.00;;;4.10;98.00;;;;;;5009334;28;20492;-62
2021/11/26 12:36:42;;;;;;;2.13;1.27;;;4.00;98.00;;;;;;5009619;28;20885;-62
2021/11/26 12:39:12;;;;;;;1.73;1.63;;;4.00;98.00;;;;;;5009748;28;20464;-62
2021/11/26 12:41:41;;;;;;;1.30;1.30;;;4.00;98.00;;;;;;5008806;28;20896;-62
2021/11/26 12:44:16;;;;;;;1.37;1.33;;;4.00;98.00;;;;;;5009630;28;20556;-62
2021/11/26 12:46:43;;;;;;;2.90;1.20;;;4.20;98.00;;;;;;5009684;28;20490;-62
2021/11/26 12:49:25;;;;;;;1.37;1.23;;;4.20;98.00;;;;;;5008162;28;20451;-63
2021/11/26 12:51:54;;;;;;;1.97;1.20;;;4.20;98.00;;;;;;5009999;28;20463;-62
2021/11/26 12:54:29;;;;;;;6.33;1.67;;;4.30;98.00;;;;;;5009349;28;20994;-63
2021/11/26 12:56:59;;;;;;;1.60;1.33;;;4.20;98.00;;;;;;5001752;28;20961;-64
2021/11/26 12:59:35;;;;;;;1.60;1.37;;;4.20;98.00;;;;;;5001250;28;20884;-63
2021/11/26 13:02:04;;;;;;;5.33;1.33;;;4.20;98.00;;;;;;5002203;28;20464;-63
2021/11/26 13:04:32;;;;;;;1.30;1.30;;;4.30;98.00;;;;;;5009156;28;20975;-63
2021/11/26 13:07:04;;;;;;;1.20;1.20;;;4.20;98.00;;;;;;5007489;28;20461;-63
2021/11/26 13:09:46;;;;;;;1.40;1.20;;;4.30;98.00;;;;;;5009002;28;20535;-63
2021/11/26 13:12:16;;;;;;;1.20;1.10;;;4.30;98.00;;;;;;5008918;28;20465;-63
2021/11/26 13:14:50;;;;;;;1.77;1.27;;;4.30;98.00;;;;;;5008273;28;20494;-63
2021/11/26 13:17:19;;;;;;;1.30;1.20;;;4.40;98.00;;;;;;5008640;28;20456;-62
2021/11/26 13:20:09;;;;;;;1.20;1.00;;;4.40;98.00;;;;;;5008338;28;20462;-62